Time;durP1;ratioP1;P1;durP2;ratioP2;P2;SDS_P1;SDS_P2;PMS_P1;PMS_P2;Temp;Humidity;BMP_temperature;BMP_pressure;BME280_temperature;BME280_humidity;BME280_pressure;Samples;Min_cycle;Max_cycle;Signal;HPM_P1;HPM_P2
2021/03/09 00:02:07;;;;;;;8.67;6.80;;;-0.80;99.90;;;;;;4996501;28;20448;-89
2021/03/09 00:04:33;;;;;;;12.50;8.10;;;-0.90;99.90;;;;;;4995251;28;20590;-89
2021/03/09 00:07:00;;;;;;;9.83;6.57;;;-0.90;99.90;;;;;;4996492;28;20523;-91
2021/03/09 00:09:26;;;;;;;10.47;6.87;;;-0.90;99.90;;;;;;4996547;28;20455;-89
2021/03/09 00:11:53;;;;;;;8.07;6.27;;;-0.90;99.90;;;;;;4996444;28;20467;-91
2021/03/09 00:14:19;;;;;;;12.60;7.13;;;-1.00;99.90;;;;;;4996468;28;20453;-91
2021/03/09 00:16:46;;;;;;;9.57;6.87;;;-1.00;99.90;;;;;;4996458;28;20806;-89
2021/03/09 00:19:12;;;;;;;10.40;6.87;;;-1.00;99.90;;;;;;4995584;28;20457;-89
2021/03/09 00:21:39;;;;;;;14.50;7.40;;;-1.00;99.90;;;;;;4996778;28;20456;-91
2021/03/09 00:24:06;;;;;;;11.33;7.37;;;-1.00;99.90;;;;;;4996233;28;20481;-90
2021/03/09 00:26:32;;;;;;;13.50;6.97;;;-1.10;99.90;;;;;;4997019;28;20456;-90
2021/03/09 00:28:58;;;;;;;7.93;6.50;;;-1.00;99.90;;;;;;4993887;28;20479;-90
2021/03/09 00:31:25;;;;;;;11.80;7.30;;;-1.10;99.90;;;;;;4996368;28;20955;-91
2021/03/09 00:33:52;;;;;;;8.70;6.57;;;-1.00;99.90;;;;;;4996088;28;20445;-90
2021/03/09 00:36:18;;;;;;;9.17;6.60;;;-1.10;99.90;;;;;;4996897;28;20502;-89
2021/03/09 00:38:45;;;;;;;9.97;7.17;;;-1.10;99.90;;;;;;4997602;28;20538;-89
2021/03/09 00:41:11;;;;;;;11.80;7.03;;;-1.10;99.90;;;;;;4998178;28;20971;-90
2021/03/09 00:43:37;;;;;;;9.53;7.40;;;-1.20;99.90;;;;;;4998136;28;20446;-89
2021/03/09 00:46:04;;;;;;;11.67;6.63;;;-1.20;99.90;;;;;;4998009;28;20455;-89
2021/03/09 00:48:36;;;;;;;8.70;5.73;;;-1.20;99.90;;;;;;4996836;28;20452;-90
2021/03/09 00:51:04;;;;;;;11.33;6.60;;;-1.20;99.90;;;;;;4996514;28;20441;-89
2021/03/09 00:53:30;;;;;;;12.20;7.70;;;-1.30;99.90;;;;;;4995752;28;20467;-90
2021/03/09 00:55:56;;;;;;;15.00;7.60;;;-1.30;99.90;;;;;;4995653;28;20452;-90
2021/03/09 00:58:22;;;;;;;8.07;6.33;;;-1.30;99.90;;;;;;4995176;28;20492;-90
2021/03/09 01:00:49;;;;;;;12.70;7.33;;;-1.30;99.90;;;;;;4995352;28;20449;-89
2021/03/09 01:03:15;;;;;;;10.10;7.07;;;-1.30;99.90;;;;;;4995685;28;20453;-90
2021/03/09 01:05:42;;;;;;;9.20;6.47;;;-1.30;99.90;;;;;;4995466;28;20511;-90
2021/03/09 01:08:10;;;;;;;9.77;6.93;;;-1.30;99.90;;;;;;4995555;28;20461;-90
2021/03/09 01:10:38;;;;;;;9.47;7.27;;;-1.30;99.90;;;;;;4993908;28;20604;-91
2021/03/09 01:13:04;;;;;;;12.03;6.83;;;-1.40;99.90;;;;;;4995322;28;20472;-89
2021/03/09 01:15:31;;;;;;;9.60;6.63;;;-1.40;99.90;;;;;;4995423;28;20445;-89
2021/03/09 01:17:57;;;;;;;10.97;7.20;;;-1.40;99.90;;;;;;4995176;28;20452;-90
2021/03/09 01:20:23;;;;;;;9.27;7.00;;;-1.40;99.90;;;;;;4994671;28;20948;-88
2021/03/09 01:22:50;;;;;;;11.07;7.23;;;-1.40;99.90;;;;;;4995908;28;20452;-88
2021/03/09 01:25:17;;;;;;;11.30;7.37;;;-1.40;99.90;;;;;;4996288;28;20508;-88
2021/03/09 01:27:44;;;;;;;11.70;6.83;;;-1.40;99.90;;;;;;4995578;28;20985;-89
2021/03/09 01:30:11;;;;;;;12.43;7.73;;;-1.40;99.90;;;;;;4995237;28;20457;-89
2021/03/09 01:32:38;;;;;;;10.77;7.30;;;-1.40;99.90;;;;;;4995791;28;20464;-90
2021/03/09 01:35:07;;;;;;;13.07;7.70;;;-1.40;99.90;;;;;;4993785;28;20445;-89
2021/03/09 01:37:33;;;;;;;11.03;8.33;;;-1.50;99.90;;;;;;4994431;28;20448;-89
2021/03/09 01:40:00;;;;;;;12.70;7.30;;;-1.40;99.90;;;;;;4994901;28;20500;-88
2021/03/09 01:42:27;;;;;;;11.20;7.13;;;-1.50;99.90;;;;;;4994633;28;20472;-89
2021/03/09 01:44:53;;;;;;;12.17;8.03;;;-1.50;99.90;;;;;;4994814;28;20497;-91
2021/03/09 01:47:21;;;;;;;11.17;7.10;;;-1.50;99.90;;;;;;4994526;28;20448;-90
2021/03/09 01:49:47;;;;;;;15.83;7.83;;;-1.50;99.90;;;;;;4993926;28;20457;-88
2021/03/09 01:52:14;;;;;;;13.00;7.23;;;-1.50;99.90;;;;;;4994756;28;20449;-90
2021/03/09 01:54:41;;;;;;;12.00;8.03;;;-1.50;99.90;;;;;;4994623;28;20503;-89
2021/03/09 01:57:08;;;;;;;13.63;8.50;;;-1.50;99.90;;;;;;4994421;28;20484;-89
2021/03/09 01:59:36;;;;;;;12.00;7.00;;;-1.50;99.90;;;;;;4994714;28;20449;-89
2021/03/09 02:02:03;;;;;;;13.97;6.90;;;-1.50;99.90;;;;;;4994397;28;20464;-91
2021/03/09 02:04:29;;;;;;;13.50;8.37;;;-1.50;99.90;;;;;;4992681;28;20491;-90
2021/03/09 02:06:56;;;;;;;13.80;8.40;;;-1.60;99.90;;;;;;4994460;28;20467;-90
2021/03/09 02:09:23;;;;;;;14.97;9.27;;;-1.60;99.90;;;;;;4994527;28;20456;-90
2021/03/09 02:12:00;;;;;;;11.90;8.20;;;-1.60;99.90;;;;;;4995371;28;20456;-90
2021/03/09 02:14:31;;;;;;;14.30;8.27;;;-1.60;99.90;;;;;;4994308;28;20460;-90
2021/03/09 02:17:03;;;;;;;17.77;8.60;;;-1.60;99.90;;;;;;4994279;28;20450;-89
2021/03/09 02:20:03;;;;;;;13.83;8.60;;;-1.60;99.90;;;;;;4993554;28;20457;-88
2021/03/09 02:22:53;;;;;;;11.67;7.90;;;-1.60;99.90;;;;;;4994523;28;20448;-88
2021/03/09 02:25:47;;;;;;;10.50;7.30;;;-1.60;99.90;;;;;;4984038;28;20489;-89
2021/03/09 02:28:28;;;;;;;15.70;8.80;;;-1.60;99.90;;;;;;4994387;28;20452;-90
2021/03/09 02:30:57;;;;;;;13.87;8.70;;;-1.60;99.90;;;;;;4992323;28;20543;-90
2021/03/09 02:33:29;;;;;;;14.97;8.30;;;-1.70;99.90;;;;;;4993416;28;20544;-88
2021/03/09 02:36:01;;;;;;;12.33;8.37;;;-1.70;99.90;;;;;;4993998;28;20452;-92
2021/03/09 02:38:33;;;;;;;12.30;9.13;;;-1.70;99.90;;;;;;4994413;28;20464;-88
2021/03/09 02:41:01;;;;;;;15.83;7.93;;;-1.70;99.90;;;;;;4993720;28;20446;-90
2021/03/09 02:43:29;;;;;;;14.43;8.70;;;-1.70;99.90;;;;;;4994317;28;20448;-91
2021/03/09 02:45:58;;;;;;;16.33;8.97;;;-1.70;99.90;;;;;;4993699;28;20474;-92
2021/03/09 02:48:27;;;;;;;17.13;8.80;;;-1.70;99.90;;;;;;4992960;28;20475;-90
2021/03/09 02:50:56;;;;;;;11.80;8.37;;;-1.80;99.90;;;;;;4993850;28;20461;-91
2021/03/09 02:53:28;;;;;;;18.70;9.90;;;-1.80;99.90;;;;;;4990738;28;20444;-92
2021/03/09 02:55:56;;;;;;;15.93;9.20;;;-1.80;99.90;;;;;;4993565;28;20457;-90
2021/03/09 02:58:24;;;;;;;16.50;9.83;;;-1.90;99.90;;;;;;4993390;28;20480;-90
2021/03/09 03:00:52;;;;;;;15.17;8.73;;;-1.80;99.90;;;;;;4993769;28;20457;-90
2021/03/09 03:03:20;;;;;;;13.47;9.20;;;-1.90;99.90;;;;;;4992841;28;20451;-91
2021/03/09 03:05:48;;;;;;;13.20;9.03;;;-1.80;99.90;;;;;;4988398;28;20492;-90
2021/03/09 03:08:15;;;;;;;13.97;9.10;;;-1.90;99.90;;;;;;4994481;28;20928;-89
2021/03/09 03:10:44;;;;;;;13.87;9.33;;;-1.90;99.90;;;;;;4993481;28;20477;-89
2021/03/09 03:13:12;;;;;;;13.13;9.13;;;-1.90;99.90;;;;;;4993820;28;20865;-89
2021/03/09 03:15:40;;;;;;;13.63;9.27;;;-1.80;99.90;;;;;;4993414;28;20542;-88
2021/03/09 03:18:11;;;;;;;15.73;9.23;;;-1.90;99.90;;;;;;4997140;28;20518;-89
2021/03/09 03:20:39;;;;;;;15.27;9.47;;;-1.90;99.90;;;;;;4997255;28;20461;-89
2021/03/09 03:23:07;;;;;;;13.33;9.10;;;-1.90;99.90;;;;;;4998535;28;20468;-89
2021/03/09 03:25:34;;;;;;;16.93;10.00;;;-1.90;99.90;;;;;;4998294;28;20504;-91
2021/03/09 03:28:03;;;;;;;11.87;9.37;;;-2.00;99.90;;;;;;4997483;28;20460;-91
2021/03/09 03:30:29;;;;;;;13.50;8.87;;;-1.90;99.90;;;;;;4997631;28;20463;-90
2021/03/09 03:32:56;;;;;;;15.87;9.53;;;-2.00;99.90;;;;;;4997920;28;20441;-89
2021/03/09 03:35:22;;;;;;;20.37;10.40;;;-2.00;99.90;;;;;;4996627;28;20463;-92
2021/03/09 03:37:50;;;;;;;13.57;10.17;;;-2.00;99.90;;;;;;4997105;28;20444;-91
2021/03/09 03:40:18;;;;;;;19.03;9.50;;;-2.00;99.90;;;;;;4994354;28;20452;-92
2021/03/09 03:42:45;;;;;;;13.80;9.60;;;-2.00;99.90;;;;;;4997280;28;20483;-89
2021/03/09 03:45:14;;;;;;;14.77;9.23;;;-2.10;99.90;;;;;;4997673;28;20499;-90
2021/03/09 03:47:40;;;;;;;20.70;10.33;;;-2.00;99.90;;;;;;4998526;28;20444;-90
2021/03/09 03:50:10;;;;;;;15.50;9.90;;;-2.00;99.90;;;;;;4996321;28;20447;-90
2021/03/09 03:52:45;;;;;;;12.87;9.37;;;-2.00;99.90;;;;;;4997026;28;20448;-90
2021/03/09 03:55:30;;;;;;;11.80;9.20;;;-2.00;99.90;;;;;;4996609;28;20807;-90
2021/03/09 03:58:05;;;;;;;15.67;9.63;;;-2.10;99.90;;;;;;4996512;28;20491;-89
2021/03/09 04:00:34;;;;;;;15.30;9.73;;;-2.00;99.90;;;;;;4996765;28;20554;-88
2021/03/09 04:03:01;;;;;;;16.20;10.33;;;0.50;99.90;;;;;;4997491;28;20536;-88
2021/03/09 04:05:29;;;;;;;16.33;9.80;;;-2.10;99.90;;;;;;4995462;28;20498;-90
2021/03/09 04:07:57;;;;;;;14.87;10.27;;;-2.10;99.90;;;;;;4996699;28;20519;-90
2021/03/09 04:10:25;;;;;;;13.47;10.97;;;-2.10;99.90;;;;;;4996549;28;20456;-89
2021/03/09 04:12:53;;;;;;;17.00;9.83;;;-2.10;99.90;;;;;;4996648;28;20566;-91
2021/03/09 04:15:22;;;;;;;14.83;9.13;;;-2.00;99.90;;;;;;4996747;28;20459;-91
2021/03/09 04:17:51;;;;;;;14.80;10.43;;;-2.10;99.90;;;;;;4996028;28;20463;-89
2021/03/09 04:20:18;;;;;;;14.47;10.07;;;-2.10;99.90;;;;;;4994969;28;20456;-88
2021/03/09 04:22:45;;;;;;;16.40;10.80;;;-2.10;99.90;;;;;;4993639;28;20499;-87
2021/03/09 04:25:13;;;;;;;14.67;9.63;;;-2.10;99.90;;;;;;4996354;28;20866;-88
2021/03/09 04:27:40;;;;;;;16.30;10.47;;;-2.10;99.90;;;;;;4995730;28;20460;-88
2021/03/09 04:30:08;;;;;;;15.97;10.03;;;-2.10;99.90;;;;;;4992325;28;20452;-87
2021/03/09 04:32:34;;;;;;;12.87;9.43;;;-2.10;99.90;;;;;;5000325;28;20770;-88
2021/03/09 04:35:00;;;;;;;17.77;11.23;;;-2.10;99.90;;;;;;5000191;28;20467;-89
2021/03/09 04:37:28;;;;;;;12.37;9.27;;;-2.10;99.90;;;;;;4999888;28;20460;-88
2021/03/09 04:39:55;;;;;;;15.63;9.97;;;-2.10;99.90;;;;;;4999339;28;20448;-88
2021/03/09 04:42:22;;;;;;;15.47;9.70;;;-2.10;99.90;;;;;;4995632;28;20457;-90
2021/03/09 04:44:50;;;;;;;16.00;10.17;;;-2.20;99.90;;;;;;4995840;28;20551;-90
2021/03/09 04:47:17;;;;;;;13.60;9.70;;;-2.20;99.90;;;;;;4995709;28;20481;-90
2021/03/09 04:49:44;;;;;;;14.37;9.60;;;-2.20;99.90;;;;;;4994961;28;20449;-88
2021/03/09 04:52:12;;;;;;;13.50;9.43;;;-2.20;99.90;;;;;;4995756;28;20456;-89
2021/03/09 04:54:38;;;;;;;15.80;9.97;;;-2.20;99.90;;;;;;4995908;28;20545;-89
2021/03/09 04:57:06;;;;;;;13.03;9.37;;;-2.20;99.90;;;;;;4996318;28;20487;-90
2021/03/09 04:59:32;;;;;;;16.47;10.47;;;-2.20;99.90;;;;;;4996016;28;20442;-89
2021/03/09 05:01:59;;;;;;;15.03;9.47;;;-2.20;99.90;;;;;;4993903;28;20460;-88
2021/03/09 05:04:25;;;;;;;15.87;9.50;;;-2.20;99.90;;;;;;4993940;28;20476;-88
2021/03/09 05:06:52;;;;;;;14.83;10.73;;;-2.20;99.90;;;;;;4995413;28;20464;-90
2021/03/09 05:09:18;;;;;;;13.80;10.03;;;-2.30;99.90;;;;;;4992917;28;20460;-89
2021/03/09 05:11:44;;;;;;;14.03;9.30;;;-2.30;99.90;;;;;;4995335;28;20449;-88
2021/03/09 05:14:11;;;;;;;14.13;10.27;;;-2.50;99.90;;;;;;4995228;28;20441;-90
2021/03/09 05:16:37;;;;;;;15.10;9.57;;;-2.30;99.90;;;;;;4992853;28;20461;-88
2021/03/09 05:19:04;;;;;;;12.17;9.40;;;-2.30;99.90;;;;;;4993004;28;20453;-87
2021/03/09 05:21:31;;;;;;;14.53;10.07;;;-2.30;99.90;;;;;;4995553;28;20464;-88
2021/03/09 05:23:57;;;;;;;13.67;9.00;;;-2.30;99.90;;;;;;4995010;28;20441;-90
2021/03/09 05:26:23;;;;;;;15.57;10.23;;;-2.40;99.90;;;;;;4995235;28;20480;-92
2021/03/09 05:28:50;;;;;;;12.63;9.40;;;-2.40;99.90;;;;;;4995108;28;20463;-92
2021/03/09 05:31:16;;;;;;;16.40;10.23;;;-2.40;99.90;;;;;;4995182;28;20929;-89
2021/03/09 05:33:42;;;;;;;16.57;11.17;;;-2.40;99.90;;;;;;4991844;28;20502;-89
2021/03/09 05:36:10;;;;;;;13.60;9.87;;;-2.30;99.90;;;;;;4993687;28;20526;-90
2021/03/09 05:38:36;;;;;;;14.83;9.83;;;-2.30;99.90;;;;;;4994787;28;20808;-88
2021/03/09 05:41:03;;;;;;;11.90;9.17;;;-2.40;99.90;;;;;;4994502;28;20449;-89
2021/03/09 05:43:31;;;;;;;15.90;10.20;;;-2.30;99.90;;;;;;4994789;28;21000;-89
2021/03/09 05:45:57;;;;;;;12.73;10.10;;;-2.30;99.90;;;;;;4994553;28;20502;-88
2021/03/09 05:48:23;;;;;;;15.20;10.27;;;-2.30;99.90;;;;;;4994056;28;20452;-89
2021/03/09 05:50:50;;;;;;;20.60;10.40;;;-2.30;99.90;;;;;;4994760;28;20474;-91
2021/03/09 05:53:17;;;;;;;14.63;10.30;;;-2.30;99.90;;;;;;4995047;28;20452;-90
2021/03/09 05:55:43;;;;;;;18.37;11.20;;;-2.20;99.90;;;;;;4994874;28;21014;-88
2021/03/09 05:58:11;;;;;;;14.20;10.50;;;-2.20;99.90;;;;;;4994023;28;21001;-91
2021/03/09 06:00:37;;;;;;;18.93;11.87;;;-1.60;99.90;;;;;;4994500;28;20458;-90
2021/03/09 06:03:03;;;;;;;17.73;11.37;;;-2.20;99.90;;;;;;4994871;28;20441;-89
2021/03/09 06:05:31;;;;;;;19.00;10.80;;;-2.20;99.90;;;;;;4988546;28;20500;-88
2021/03/09 06:07:58;;;;;;;17.63;11.53;;;-2.20;99.90;;;;;;4994423;28;20502;-90
2021/03/09 06:10:26;;;;;;;18.80;10.70;;;-2.10;99.90;;;;;;4994828;28;20466;-88
2021/03/09 06:12:53;;;;;;;15.23;10.90;;;-2.00;99.90;;;;;;4994630;28;20452;-92
2021/03/09 06:15:20;;;;;;;14.80;10.60;;;-2.00;99.90;;;;;;4994724;28;20449;-89
2021/03/09 06:17:55;;;;;;;16.53;11.73;;;-1.90;99.90;;;;;;4993250;28;20454;-90
2021/03/09 06:20:23;;;;;;;15.07;10.93;;;-1.90;99.90;;;;;;4993536;28;20453;-89
2021/03/09 06:22:51;;;;;;;18.67;11.63;;;-1.80;99.90;;;;;;4994621;28;20522;-90
2021/03/09 06:25:20;;;;;;;32.77;12.37;;;-1.80;99.90;;;;;;4994403;28;20504;-91
2021/03/09 06:27:47;;;;;;;22.17;12.97;;;-1.80;99.90;;;;;;4994241;28;20507;-90
2021/03/09 06:30:15;;;;;;;19.87;13.00;;;-1.70;99.90;;;;;;4993990;28;20453;-89
2021/03/09 06:32:44;;;;;;;19.20;13.30;;;-1.60;99.90;;;;;;4991814;28;20495;-91
2021/03/09 06:35:28;;;;;;;18.70;12.40;;;-1.50;99.90;;;;;;4993646;28;20457;-89
2021/03/09 06:38:15;;;;;;;22.80;15.00;;;-1.50;99.90;;;;;;4995273;28;20449;-92
2021/03/09 06:40:42;;;;;;;23.93;14.53;;;-1.40;99.90;;;;;;4991495;28;20899;-90
2021/03/09 06:43:16;;;;;;;35.13;18.67;;;-1.30;99.90;;;;;;4994458;28;20492;-90
2021/03/09 06:45:42;;;;;;;28.37;16.73;;;-1.20;99.90;;;;;;4995435;28;20489;-92
2021/03/09 06:48:20;;;;;;;23.10;15.83;;;-1.00;99.90;;;;;;4995885;28;20456;-90
2021/03/09 06:50:46;;;;;;;25.10;16.80;;;-0.90;99.90;;;;;;4997018;28;20460;-90
2021/03/09 06:53:13;;;;;;;20.93;14.00;;;-0.90;99.90;;;;;;4995651;28;20457;-91
2021/03/09 06:55:39;;;;;;;23.07;14.43;;;-0.80;99.90;;;;;;4992968;28;20457;-91
2021/03/09 06:58:07;;;;;;;20.50;14.00;;;-0.70;99.90;;;;;;4990517;28;20484;-90
2021/03/09 07:00:35;;;;;;;19.43;13.33;;;-0.70;99.90;;;;;;4997714;28;20524;-91
2021/03/09 07:03:01;;;;;;;25.10;15.90;;;-0.50;99.90;;;;;;4999068;28;20452;-91
2021/03/09 07:05:28;;;;;;;24.53;15.00;;;-0.40;99.90;;;;;;4997664;28;20501;-90
2021/03/09 07:07:54;;;;;;;23.53;13.40;;;-0.20;99.90;;;;;;5000270;28;20468;-92
2021/03/09 07:10:22;;;;;;;20.23;14.37;;;-0.10;99.90;;;;;;4999238;28;20500;-92
2021/03/09 07:12:49;;;;;;;27.43;16.27;;;0.10;99.90;;;;;;5000965;28;20453;-90
2021/03/09 07:15:18;;;;;;;21.80;14.87;;;0.10;99.90;;;;;;4998931;28;20945;-91
2021/03/09 07:17:47;;;;;;;21.17;15.10;;;0.40;99.90;;;;;;4997781;28;20452;-90
2021/03/09 07:20:15;;;;;;;25.27;16.97;;;0.50;99.90;;;;;;4996329;28;20463;-93
2021/03/09 07:22:42;;;;;;;22.67;16.07;;;0.60;99.90;;;;;;4997041;28;20449;-88
2021/03/09 07:25:11;;;;;;;22.23;16.00;;;0.70;99.90;;;;;;4997145;28;20520;-90
2021/03/09 07:27:41;;;;;;;26.63;17.80;;;1.00;99.90;;;;;;4995621;28;20500;-91
2021/03/09 07:30:10;;;;;;;22.53;16.80;;;1.30;99.90;;;;;;4996629;28;20449;-88
2021/03/09 07:32:39;;;;;;;22.93;15.73;;;1.70;99.90;;;;;;4997159;28;20572;-91
2021/03/09 07:35:08;;;;;;;20.93;14.97;;;1.80;99.90;;;;;;4997315;28;20456;-89
2021/03/09 07:37:38;;;;;;;21.17;16.00;;;2.10;99.90;;;;;;4998585;28;20847;-89
2021/03/09 07:40:06;;;;;;;22.20;15.13;;;2.20;99.90;;;;;;4999884;28;20452;-92
2021/03/09 07:42:33;;;;;;;27.43;15.83;;;2.60;99.90;;;;;;5000934;28;20454;-89
2021/03/09 07:44:59;;;;;;;20.43;15.20;;;2.70;99.90;;;;;;5004978;28;20547;-90
2021/03/09 07:47:26;;;;;;;30.50;14.60;;;2.70;99.90;;;;;;5002381;28;20460;-89
2021/03/09 07:49:53;;;;;;;19.27;14.77;;;3.00;99.90;;;;;;4997494;28;20492;-90
2021/03/09 07:52:21;;;;;;;20.40;14.80;;;3.40;99.90;;;;;;4997992;28;20479;-87
2021/03/09 07:55:16;;;;;;;20.20;15.07;;;3.50;99.90;;;;;;4996693;28;20453;-93
2021/03/09 07:57:43;;;;;;;21.40;15.73;;;3.70;99.90;;;;;;4996949;28;20526;-90
2021/03/09 08:00:12;;;;;;;25.33;15.27;;;3.60;99.90;;;;;;4994588;28;20465;-90
2021/03/09 08:02:52;;;;;;;19.33;13.60;;;3.70;99.90;;;;;;4998884;28;20469;-90
2021/03/09 08:05:21;;;;;;;23.00;15.47;;;4.00;99.90;;;;;;5001631;28;20496;-91
2021/03/09 08:07:51;;;;;;;21.77;15.00;;;3.80;99.90;;;;;;5004009;28;20456;-91
2021/03/09 08:10:43;;;;;;;23.17;16.27;;;3.70;99.90;;;;;;5002452;28;20453;-93
2021/03/09 08:13:21;;;;;;;21.77;15.07;;;3.70;99.90;;;;;;5000430;28;20452;-92
2021/03/09 08:15:47;;;;;;;18.57;14.77;;;3.60;99.90;;;;;;4999250;28;20441;-89
2021/03/09 08:18:44;;;;;;;23.20;15.90;;;3.80;99.90;;;;;;4999128;28;20452;-92
2021/03/09 08:21:11;;;;;;;20.50;14.00;;;4.10;99.90;;;;;;4940017;29;20453;-90
2021/03/09 08:23:54;;;;;;;17.17;13.60;;;4.10;99.90;;;;;;4941321;29;20472;-89
2021/03/09 08:26:44;;;;;;;21.90;14.77;;;4.50;99.90;;;;;;4938807;29;20503;-89
2021/03/09 08:29:32;;;;;;;22.53;14.53;;;4.70;99.90;;;;;;4941732;29;20836;-89
2021/03/09 08:32:26;;;;;;;21.80;15.37;;;5.00;99.90;;;;;;4939700;29;20893;-92
2021/03/09 08:35:20;;;;;;;20.87;14.73;;;5.00;99.90;;;;;;4941291;29;20445;-90
2021/03/09 08:37:48;;;;;;;18.00;14.67;;;5.20;99.90;;;;;;4941811;29;20479;-89
2021/03/09 08:40:17;;;;;;;19.50;15.53;;;5.20;99.90;;;;;;4999309;28;20460;-94
2021/03/09 08:43:14;;;;;;;18.63;15.23;;;5.50;99.90;;;;;;5002087;28;20457;-91
2021/03/09 08:45:42;;;;;;;25.60;14.80;;;5.40;99.90;;;;;;5001670;28;20488;-88
2021/03/09 08:48:10;;;;;;;23.40;14.70;;;5.80;99.90;;;;;;5002330;28;20477;-89
2021/03/09 08:50:41;;;;;;;17.43;14.60;;;5.80;99.90;;;;;;4998144;28;20473;-89
2021/03/09 08:53:30;;;;;;;20.50;15.77;;;5.60;99.90;;;;;;4997891;28;20454;-89
2021/03/09 08:55:58;;;;;;;16.73;14.20;;;6.10;99.90;;;;;;4994434;28;20453;-89
2021/03/09 08:58:25;;;;;;;19.23;15.10;;;6.10;99.90;;;;;;4997304;28;20481;-88
2021/03/09 09:00:52;;;;;;;21.57;14.60;;;5.70;99.90;;;;;;4991071;28;20453;-88
2021/03/09 09:03:30;;;;;;;21.77;15.37;;;6.30;99.90;;;;;;4995702;28;20442;-85
2021/03/09 09:05:57;;;;;;;22.00;14.70;;;6.60;99.90;;;;;;4993620;28;20504;-87
2021/03/09 09:08:24;;;;;;;20.03;15.70;;;6.80;99.90;;;;;;4976816;28;20460;-85
2021/03/09 09:10:50;;;;;;;18.80;15.40;;;6.80;99.90;;;;;;4976589;28;20460;-89
2021/03/09 09:13:27;;;;;;;20.63;15.33;;;6.80;99.90;;;;;;4978528;28;20454;-88
2021/03/09 09:15:53;;;;;;;20.80;16.37;;;7.00;99.90;;;;;;4977226;28;20450;-88
2021/03/09 09:18:21;;;;;;;16.93;13.73;;;7.40;99.90;;;;;;4976897;28;20465;-89
2021/03/09 09:20:48;;;;;;;18.33;14.93;;;7.20;99.90;;;;;;4978751;28;20477;-88
2021/03/09 09:23:18;;;;;;;15.37;13.63;;;6.90;99.90;;;;;;4978101;28;20538;-89
2021/03/09 09:25:46;;;;;;;20.93;14.80;;;6.50;99.90;;;;;;4977231;28;20497;-87
2021/03/09 09:28:23;;;;;;;19.80;14.63;;;6.80;99.90;;;;;;4974161;28;20454;-88
2021/03/09 09:30:49;;;;;;;16.30;14.43;;;6.60;99.90;;;;;;4975664;28;20841;-88
2021/03/09 09:33:16;;;;;;;19.40;13.70;;;7.10;99.90;;;;;;4976089;28;20454;-86
2021/03/09 09:35:43;;;;;;;15.87;13.10;;;7.40;99.90;;;;;;4977194;28;20446;-87
2021/03/09 09:38:11;;;;;;;18.20;13.07;;;7.40;99.90;;;;;;4977164;28;20458;-87
2021/03/09 09:40:39;;;;;;;16.37;12.13;;;7.50;99.90;;;;;;4975780;28;20457;-88
2021/03/09 09:43:08;;;;;;;17.83;12.70;;;7.40;99.90;;;;;;4975190;28;20450;-88
2021/03/09 09:45:41;;;;;;;16.77;12.87;;;7.30;99.90;;;;;;4975249;28;20502;-87
2021/03/09 09:48:11;;;;;;;13.87;11.70;;;6.90;99.90;;;;;;4976424;28;20457;-87
2021/03/09 09:50:43;;;;;;;20.70;13.90;;;7.00;99.90;;;;;;4983839;28;20456;-87
2021/03/09 09:53:09;;;;;;;15.53;12.03;;;7.60;99.90;;;;;;4996355;28;20492;-87
2021/03/09 09:55:35;;;;;;;15.87;12.90;;;7.40;99.50;;;;;;4999538;28;20453;-87
2021/03/09 09:58:03;;;;;;;15.30;10.77;;;7.10;99.30;;;;;;4981692;28;20587;-88
2021/03/09 10:00:31;;;;;;;14.13;12.30;;;7.30;98.70;;;;;;4994852;28;20543;-87
2021/03/09 10:03:15;;;;;;;13.90;11.60;;;7.60;98.40;;;;;;4995340;28;20553;-87
2021/03/09 10:05:44;;;;;;;16.70;11.20;;;7.70;98.30;;;;;;4995841;28;20496;-87
2021/03/09 10:08:12;;;;;;;17.60;12.00;;;7.60;98.20;;;;;;4997510;28;20446;-86
2021/03/09 10:10:40;;;;;;;13.40;11.00;;;8.00;97.80;;;;;;4996062;28;20457;-87
2021/03/09 10:13:23;;;;;;;13.50;10.87;;;8.50;97.30;;;;;;4994683;28;20957;-87
2021/03/09 10:15:50;;;;;;;15.50;9.77;;;8.50;95.10;;;;;;4994012;28;20539;-86
2021/03/09 10:18:29;;;;;;;12.43;10.47;;;8.40;95.60;;;;;;4992768;28;20508;-86
2021/03/09 10:21:11;;;;;;;15.37;11.60;;;8.60;95.50;;;;;;4994874;28;20449;-85
2021/03/09 10:23:55;;;;;;;10.73;9.63;;;8.60;96.00;;;;;;4995004;28;20477;-88
2021/03/09 10:26:30;;;;;;;13.30;11.50;;;8.80;95.40;;;;;;4994790;28;20497;-87
2021/03/09 10:29:04;;;;;;;12.50;10.60;;;8.90;95.20;;;;;;4995068;28;20460;-88
2021/03/09 10:31:49;;;;;;;11.97;10.30;;;8.70;95.50;;;;;;4989378;28;21080;-88
2021/03/09 10:34:17;;;;;;;10.63;9.40;;;8.60;94.90;;;;;;4985443;28;20829;-90
2021/03/09 10:36:49;;;;;;;11.20;10.00;;;8.50;94.80;;;;;;4997121;28;20453;-90
2021/03/09 10:39:16;;;;;;;9.93;8.27;;;8.80;94.00;;;;;;4995401;28;20460;-89
2021/03/09 10:41:42;;;;;;;12.70;9.60;;;9.00;93.80;;;;;;4994779;28;20515;-87
2021/03/09 10:44:30;;;;;;;9.93;8.53;;;9.30;93.40;;;;;;4994742;28;20797;-89
2021/03/09 10:46:57;;;;;;;11.67;10.47;;;9.30;92.90;;;;;;4994277;28;20445;-88
2021/03/09 10:49:24;;;;;;;10.10;8.00;;;10.00;91.50;;;;;;4995364;28;20480;-88
2021/03/09 10:51:56;;;;;;;8.43;7.53;;;9.20;92.40;;;;;;4993932;28;20440;-87
2021/03/09 10:54:22;;;;;;;8.63;7.63;;;9.70;91.70;;;;;;4995179;28;20496;-89
2021/03/09 10:56:48;;;;;;;10.17;8.50;;;9.60;90.70;;;;;;4996238;28;20492;-88
2021/03/09 10:59:15;;;;;;;10.07;7.60;;;9.50;90.50;;;;;;4995248;28;20933;-88
2021/03/09 11:01:42;;;;;;;9.00;8.20;;;8.80;92.10;;;;;;4994921;28;21035;-87
2021/03/09 11:04:08;;;;;;;10.83;8.37;;;9.10;92.40;;;;;;4994043;28;20452;-88
2021/03/09 11:06:35;;;;;;;8.13;7.30;;;9.80;91.80;;;;;;4995174;28;20492;-86
2021/03/09 11:09:02;;;;;;;9.27;8.37;;;10.00;91.60;;;;;;4988231;28;20445;-89
2021/03/09 11:11:28;;;;;;;9.70;8.80;;;10.40;90.40;;;;;;4982513;28;20445;-90
2021/03/09 11:13:55;;;;;;;10.70;8.90;;;10.40;86.40;;;;;;4989558;28;20837;-90
2021/03/09 11:16:21;;;;;;;10.70;8.83;;;10.30;84.80;;;;;;5002161;28;20461;-88
2021/03/09 11:18:47;;;;;;;10.00;8.87;;;9.60;89.40;;;;;;4996524;28;20453;-90
2021/03/09 11:21:14;;;;;;;8.37;7.57;;;8.70;90.80;;;;;;4988393;28;20541;-88
2021/03/09 11:23:41;;;;;;;9.13;8.23;;;9.10;89.60;;;;;;4973348;28;20470;-90
2021/03/09 11:26:08;;;;;;;12.43;10.70;;;8.80;89.00;;;;;;4974078;28;21039;-87
2021/03/09 11:28:34;;;;;;;10.47;9.37;;;8.70;90.10;;;;;;4976786;28;20926;-88
2021/03/09 11:31:01;;;;;;;9.63;8.63;;;8.60;90.70;;;;;;4977971;28;20446;-87
2021/03/09 11:33:27;;;;;;;9.67;8.70;;;8.60;90.30;;;;;;4973786;28;20474;-89
2021/03/09 11:35:54;;;;;;;9.90;8.40;;;8.60;91.20;;;;;;4976298;28;20454;-88
2021/03/09 11:38:21;;;;;;;12.10;8.37;;;8.90;91.20;;;;;;4977528;28;20469;-89
2021/03/09 11:40:48;;;;;;;12.03;9.77;;;9.00;89.70;;;;;;4975941;28;20442;-88
2021/03/09 11:43:15;;;;;;;11.57;9.07;;;8.60;90.70;;;;;;4976184;28;20454;-90
2021/03/09 11:45:41;;;;;;;9.20;8.30;;;8.20;90.60;;;;;;4989268;28;20480;-88
2021/03/09 11:48:08;;;;;;;12.50;10.30;;;7.50;91.20;;;;;;4996104;28;20461;-89
2021/03/09 11:50:35;;;;;;;13.13;10.80;;;8.00;91.30;;;;;;4992622;28;20445;-91
2021/03/09 11:53:01;;;;;;;9.37;8.27;;;8.50;91.00;;;;;;4997931;28;20465;-89
2021/03/09 11:55:27;;;;;;;11.93;9.27;;;8.50;90.90;;;;;;4992248;28;20453;-89
2021/03/09 11:57:55;;;;;;;10.10;8.33;;;9.20;91.50;;;;;;4997692;28;20527;-87
2021/03/09 12:00:22;;;;;;;9.10;8.23;;;9.50;90.10;;;;;;4997009;28;20456;-88
2021/03/09 12:02:48;;;;;;;9.27;7.60;;;9.20;88.40;;;;;;4997046;28;20960;-87
2021/03/09 12:05:15;;;;;;;9.67;8.67;;;9.00;88.40;;;;;;4995557;28;20497;-87
2021/03/09 12:07:41;;;;;;;10.47;8.20;;;9.30;88.40;;;;;;4993278;28;20468;-87
2021/03/09 12:10:08;;;;;;;10.07;9.07;;;9.50;90.00;;;;;;4996464;28;20453;-88
2021/03/09 12:12:35;;;;;;;9.60;8.40;;;9.30;87.60;;;;;;4992894;28;20487;-86
2021/03/09 12:15:02;;;;;;;9.43;8.40;;;9.90;86.40;;;;;;4995910;28;20457;-87
2021/03/09 12:17:28;;;;;;;9.00;8.10;;;10.40;85.20;;;;;;4995793;28;20464;-87
2021/03/09 12:19:55;;;;;;;11.37;8.73;;;10.20;85.50;;;;;;4994642;28;20448;-87
2021/03/09 12:22:21;;;;;;;11.17;8.27;;;9.90;86.40;;;;;;4995808;28;20449;-88
2021/03/09 12:24:47;;;;;;;12.90;8.80;;;9.70;87.70;;;;;;4995646;28;20452;-86
2021/03/09 12:27:13;;;;;;;11.07;9.80;;;9.90;88.60;;;;;;4995378;28;20461;-87
2021/03/09 12:29:40;;;;;;;9.53;8.53;;;9.60;87.80;;;;;;4995562;28;20453;-87
2021/03/09 12:32:08;;;;;;;11.80;8.83;;;9.30;86.80;;;;;;4996084;28;20778;-87
2021/03/09 12:34:34;;;;;;;10.40;8.17;;;9.10;87.20;;;;;;4992523;28;20453;-87
2021/03/09 12:37:00;;;;;;;10.83;8.37;;;9.10;87.70;;;;;;4998025;28;20460;-87
2021/03/09 12:39:27;;;;;;;8.97;8.07;;;9.10;87.20;;;;;;4997079;28;20948;-88
2021/03/09 12:41:53;;;;;;;10.63;7.87;;;9.30;89.60;;;;;;4991579;28;20442;-87
2021/03/09 12:44:20;;;;;;;11.00;7.70;;;9.70;87.80;;;;;;4997648;28;21087;-89
2021/03/09 12:46:46;;;;;;;8.30;7.47;;;9.70;86.40;;;;;;4994409;28;20481;-88
2021/03/09 12:49:13;;;;;;;9.10;7.80;;;10.40;85.60;;;;;;4997125;28;20500;-88